sensor_id;sensor_type;location;lat;lon;timestamp;temperature;humidity
73137;DHT22;62977;45.636;11.750;2022-11-23T00:00:35;9.70;85.20
73137;DHT22;62977;45.636;11.750;2022-11-23T00:03:01;9.70;85.30
73137;DHT22;62977;45.636;11.750;2022-11-23T00:05:28;9.60;85.00
73137;DHT22;62977;45.636;11.750;2022-11-23T00:07:54;9.80;85.00
73137;DHT22;62977;45.636;11.750;2022-11-23T00:10:20;9.80;85.10
73137;DHT22;62977;45.636;11.750;2022-11-23T00:12:46;9.70;85.30
73137;DHT22;62977;45.636;11.750;2022-11-23T00:15:13;9.70;85.50
73137;DHT22;62977;45.636;11.750;2022-11-23T00:17:39;9.60;85.30
73137;DHT22;62977;45.636;11.750;2022-11-23T00:20:06;9.70;85.30
73137;DHT22;62977;45.636;11.750;2022-11-23T00:22:32;9.60;85.40
73137;DHT22;62977;45.636;11.750;2022-11-23T00:24:58;9.40;85.80
73137;DHT22;62977;45.636;11.750;2022-11-23T00:27:24;9.70;86.00
73137;DHT22;62977;45.636;11.750;2022-11-23T00:29:49;9.60;85.80
73137;DHT22;62977;45.636;11.750;2022-11-23T00:32:15;9.60;85.70
73137;DHT22;62977;45.636;11.750;2022-11-23T00:34:41;9.60;85.60
73137;DHT22;62977;45.636;11.750;2022-11-23T00:37:06;9.60;85.80
73137;DHT22;62977;45.636;11.750;2022-11-23T00:39:32;9.70;85.90
73137;DHT22;62977;45.636;11.750;2022-11-23T00:41:58;9.60;85.30
73137;DHT22;62977;45.636;11.750;2022-11-23T00:44:23;9.70;85.50
73137;DHT22;62977;45.636;11.750;2022-11-23T00:46:49;9.50;85.20
73137;DHT22;62977;45.636;11.750;2022-11-23T00:49:15;9.60;85.40
73137;DHT22;62977;45.636;11.750;2022-11-23T00:51:40;9.70;85.30
73137;DHT22;62977;45.636;11.750;2022-11-23T00:54:06;9.70;85.20
73137;DHT22;62977;45.636;11.750;2022-11-23T00:56:33;9.70;85.50
73137;DHT22;62977;45.636;11.750;2022-11-23T00:59:00;9.70;85.10
73137;DHT22;62977;45.636;11.750;2022-11-23T01:01:28;9.70;85.40
73137;DHT22;62977;45.636;11.750;2022-11-23T01:03:57;9.80;85.20
73137;DHT22;62977;45.636;11.750;2022-11-23T01:06:29;9.80;85.30
73137;DHT22;62977;45.636;11.750;2022-11-23T01:09:01;9.80;85.30
73137;DHT22;62977;45.636;11.750;2022-11-23T01:11:29;9.80;85.00
73137;DHT22;62977;45.636;11.750;2022-11-23T01:13:55;9.70;85.40
73137;DHT22;62977;45.636;11.750;2022-11-23T01:16:26;9.60;85.60
73137;DHT22;62977;45.636;11.750;2022-11-23T01:18:53;9.70;85.50
73137;DHT22;62977;45.636;11.750;2022-11-23T01:21:19;9.50;85.50
73137;DHT22;62977;45.636;11.750;2022-11-23T01:23:45;9.50;85.70
73137;DHT22;62977;45.636;11.750;2022-11-23T01:26:11;9.60;85.70
73137;DHT22;62977;45.636;11.750;2022-11-23T01:28:38;9.60;85.40
73137;DHT22;62977;45.636;11.750;2022-11-23T01:31:10;9.60;85.40
73137;DHT22;62977;45.636;11.750;2022-11-23T01:33:36;9.60;85.30
73137;DHT22;62977;45.636;11.750;2022-11-23T01:36:22;9.50;85.30
73137;DHT22;62977;45.636;11.750;2022-11-23T01:38:49;9.60;85.30
73137;DHT22;62977;45.636;11.750;2022-11-23T01:41:24;9.70;85.40
73137;DHT22;62977;45.636;11.750;2022-11-23T01:43:50;9.70;85.40
73137;DHT22;62977;45.636;11.750;2022-11-23T01:46:16;9.70;85.40
73137;DHT22;62977;45.636;11.750;2022-11-23T01:48:50;9.70;85.90
73137;DHT22;62977;45.636;11.750;2022-11-23T01:51:20;9.50;85.90
73137;DHT22;62977;45.636;11.750;2022-11-23T01:53:49;9.50;86.10
73137;DHT22;62977;45.636;11.750;2022-11-23T01:56:19;9.40;86.30
73137;DHT22;62977;45.636;11.750;2022-11-23T01:58:47;9.30;86.70
73137;DHT22;62977;45.636;11.750;2022-11-23T02:01:14;9.30;86.80
73137;DHT22;62977;45.636;11.750;2022-11-23T02:03:41;9.00;86.90
73137;DHT22;62977;45.636;11.750;2022-11-23T02:06:13;9.10;87.00
73137;DHT22;62977;45.636;11.750;2022-11-23T02:08:40;9.40;86.80
73137;DHT22;62977;45.636;11.750;2022-11-23T02:11:06;9.40;86.60
73137;DHT22;62977;45.636;11.750;2022-11-23T02:13:32;9.40;86.40
73137;DHT22;62977;45.636;11.750;2022-11-23T02:15:58;9.40;86.20
73137;DHT22;62977;45.636;11.750;2022-11-23T02:18:27;9.50;86.00
73137;DHT22;62977;45.636;11.750;2022-11-23T02:20:54;9.50;85.90
73137;DHT22;62977;45.636;11.750;2022-11-23T02:23:41;9.50;85.70
73137;DHT22;62977;45.636;11.750;2022-11-23T02:26:13;9.60;85.90
73137;DHT22;62977;45.636;11.750;2022-11-23T02:28:55;9.60;85.50
73137;DHT22;62977;45.636;11.750;2022-11-23T02:31:22;9.50;85.40
73137;DHT22;62977;45.636;11.750;2022-11-23T02:33:48;9.50;85.20
73137;DHT22;62977;45.636;11.750;2022-11-23T02:36:33;9.50;85.10
73137;DHT22;62977;45.636;11.750;2022-11-23T02:39:11;9.50;85.00
73137;DHT22;62977;45.636;11.750;2022-11-23T02:41:47;9.50;85.00
73137;DHT22;62977;45.636;11.750;2022-11-23T02:46:48;9.60;84.80
73137;DHT22;62977;45.636;11.750;2022-11-23T02:49:13;9.50;84.80
73137;DHT22;62977;45.636;11.750;2022-11-23T02:51:39;9.60;84.90
73137;DHT22;62977;45.636;11.750;2022-11-23T02:54:05;9.50;85.00
73137;DHT22;62977;45.636;11.750;2022-11-23T02:56:31;9.50;85.00
73137;DHT22;62977;45.636;11.750;2022-11-23T02:58:56;9.60;85.00
73137;DHT22;62977;45.636;11.750;2022-11-23T03:01:22;9.50;85.10
73137;DHT22;62977;45.636;11.750;2022-11-23T03:03:47;9.40;85.40
73137;DHT22;62977;45.636;11.750;2022-11-23T03:06:13;9.40;85.50
73137;DHT22;62977;45.636;11.750;2022-11-23T03:08:39;9.40;85.40
73137;DHT22;62977;45.636;11.750;2022-11-23T03:11:04;9.30;85.20
73137;DHT22;62977;45.636;11.750;2022-11-23T03:13:30;9.30;85.20
73137;DHT22;62977;45.636;11.750;2022-11-23T03:15:56;9.40;85.00
73137;DHT22;62977;45.636;11.750;2022-11-23T03:18:22;9.40;85.10
73137;DHT22;62977;45.636;11.750;2022-11-23T03:20:48;9.30;84.70
73137;DHT22;62977;45.636;11.750;2022-11-23T03:23:13;9.30;84.30
73137;DHT22;62977;45.636;11.750;2022-11-23T03:25:39;9.40;84.50
73137;DHT22;62977;45.636;11.750;2022-11-23T03:28:04;9.30;84.30
73137;DHT22;62977;45.636;11.750;2022-11-23T03:30:30;9.30;84.20
73137;DHT22;62977;45.636;11.750;2022-11-23T03:32:56;9.30;84.20
73137;DHT22;62977;45.636;11.750;2022-11-23T03:35:22;9.30;84.10
73137;DHT22;62977;45.636;11.750;2022-11-23T03:37:48;9.30;84.20
73137;DHT22;62977;45.636;11.750;2022-11-23T03:40:13;9.40;83.90
73137;DHT22;62977;45.636;11.750;2022-11-23T03:42:40;9.20;84.20
73137;DHT22;62977;45.636;11.750;2022-11-23T03:45:06;9.30;84.30
73137;DHT22;62977;45.636;11.750;2022-11-23T03:47:32;9.30;84.20
73137;DHT22;62977;45.636;11.750;2022-11-23T03:49:58;9.30;84.30
73137;DHT22;62977;45.636;11.750;2022-11-23T03:52:24;9.30;84.20
73137;DHT22;62977;45.636;11.750;2022-11-23T03:54:49;9.40;84.30
73137;DHT22;62977;45.636;11.750;2022-11-23T03:57:15;9.30;84.20
73137;DHT22;62977;45.636;11.750;2022-11-23T03:59:41;9.40;84.10
73137;DHT22;62977;45.636;11.750;2022-11-23T04:02:07;9.40;84.30
73137;DHT22;62977;45.636;11.750;2022-11-23T04:04:33;9.40;84.40
73137;DHT22;62977;45.636;11.750;2022-11-23T04:06:59;9.50;84.20
73137;DHT22;62977;45.636;11.750;2022-11-23T04:09:25;9.50;84.30
73137;DHT22;62977;45.636;11.750;2022-11-23T04:11:50;9.40;84.50
73137;DHT22;62977;45.636;11.750;2022-11-23T04:14:16;9.30;84.80
73137;DHT22;62977;45.636;11.750;2022-11-23T04:16:42;9.30;84.80
73137;DHT22;62977;45.636;11.750;2022-11-23T04:19:08;9.30;84.70
73137;DHT22;62977;45.636;11.750;2022-11-23T04:21:33;9.30;84.90
73137;DHT22;62977;45.636;11.750;2022-11-23T04:23:59;9.30;84.50
73137;DHT22;62977;45.636;11.750;2022-11-23T04:26:25;9.30;84.60
73137;DHT22;62977;45.636;11.750;2022-11-23T04:28:50;9.20;84.80
73137;DHT22;62977;45.636;11.750;2022-11-23T04:31:16;9.30;84.90
73137;DHT22;62977;45.636;11.750;2022-11-23T04:33:42;9.40;84.90
73137;DHT22;62977;45.636;11.750;2022-11-23T04:36:07;9.30;85.00
73137;DHT22;62977;45.636;11.750;2022-11-23T04:38:33;9.40;85.10
73137;DHT22;62977;45.636;11.750;2022-11-23T04:40:59;9.40;85.10
73137;DHT22;62977;45.636;11.750;2022-11-23T04:43:25;9.30;85.00
73137;DHT22;62977;45.636;11.750;2022-11-23T04:45:50;9.30;85.00
73137;DHT22;62977;45.636;11.750;2022-11-23T04:48:16;9.30;85.10
73137;DHT22;62977;45.636;11.750;2022-11-23T04:50:42;9.20;85.30
73137;DHT22;62977;45.636;11.750;2022-11-23T04:53:07;9.20;85.50
73137;DHT22;62977;45.636;11.750;2022-11-23T04:55:33;9.20;85.40
73137;DHT22;62977;45.636;11.750;2022-11-23T04:57:59;9.20;85.60
73137;DHT22;62977;45.636;11.750;2022-11-23T05:00:25;9.00;85.40
73137;DHT22;62977;45.636;11.750;2022-11-23T05:02:51;9.00;85.50
73137;DHT22;62977;45.636;11.750;2022-11-23T05:05:17;9.00;85.60
73137;DHT22;62977;45.636;11.750;2022-11-23T05:07:42;9.00;85.50
73137;DHT22;62977;45.636;11.750;2022-11-23T05:10:09;9.00;85.70
73137;DHT22;62977;45.636;11.750;2022-11-23T05:12:35;8.80;86.00
73137;DHT22;62977;45.636;11.750;2022-11-23T05:15:01;9.00;86.00
73137;DHT22;62977;45.636;11.750;2022-11-23T05:17:27;8.80;86.10
73137;DHT22;62977;45.636;11.750;2022-11-23T05:19:53;8.80;86.20
73137;DHT22;62977;45.636;11.750;2022-11-23T05:22:20;8.80;86.50
73137;DHT22;62977;45.636;11.750;2022-11-23T05:24:45;8.70;86.50
73137;DHT22;62977;45.636;11.750;2022-11-23T05:27:12;8.60;86.50
73137;DHT22;62977;45.636;11.750;2022-11-23T05:29:37;8.60;86.60
73137;DHT22;62977;45.636;11.750;2022-11-23T05:32:03;8.60;86.70
73137;DHT22;62977;45.636;11.750;2022-11-23T05:34:29;8.60;86.90
73137;DHT22;62977;45.636;11.750;2022-11-23T05:36:55;8.60;86.70
73137;DHT22;62977;45.636;11.750;2022-11-23T05:39:21;8.50;86.80
73137;DHT22;62977;45.636;11.750;2022-11-23T05:41:47;8.50;86.70
73137;DHT22;62977;45.636;11.750;2022-11-23T05:44:12;8.40;87.00
73137;DHT22;62977;45.636;11.750;2022-11-23T05:46:38;8.50;86.70
73137;DHT22;62977;45.636;11.750;2022-11-23T05:49:04;8.40;86.90
73137;DHT22;62977;45.636;11.750;2022-11-23T05:51:29;8.50;86.60
73137;DHT22;62977;45.636;11.750;2022-11-23T05:53:56;8.40;86.60
73137;DHT22;62977;45.636;11.750;2022-11-23T05:56:22;8.50;86.40
73137;DHT22;62977;45.636;11.750;2022-11-23T05:58:48;8.40;86.30
73137;DHT22;62977;45.636;11.750;2022-11-23T06:01:14;8.50;86.60
73137;DHT22;62977;45.636;11.750;2022-11-23T06:03:40;8.50;86.40
73137;DHT22;62977;45.636;11.750;2022-11-23T06:06:05;8.40;86.10
73137;DHT22;62977;45.636;11.750;2022-11-23T06:08:31;8.40;86.30
73137;DHT22;62977;45.636;11.750;2022-11-23T06:11:00;8.40;86.00
73137;DHT22;62977;45.636;11.750;2022-11-23T06:13:25;8.30;86.30
73137;DHT22;62977;45.636;11.750;2022-11-23T06:15:51;8.40;86.10
73137;DHT22;62977;45.636;11.750;2022-11-23T06:18:17;8.30;86.50
73137;DHT22;62977;45.636;11.750;2022-11-23T06:20:43;8.30;86.30
73137;DHT22;62977;45.636;11.750;2022-11-23T06:23:09;8.40;86.30
73137;DHT22;62977;45.636;11.750;2022-11-23T06:25:35;8.40;86.30
73137;DHT22;62977;45.636;11.750;2022-11-23T06:28:03;8.40;86.20
73137;DHT22;62977;45.636;11.750;2022-11-23T06:30:29;8.30;85.90
73137;DHT22;62977;45.636;11.750;2022-11-23T06:32:55;8.30;85.60
73137;DHT22;62977;45.636;11.750;2022-11-23T06:35:21;8.30;85.60
73137;DHT22;62977;45.636;11.750;2022-11-23T06:37:50;8.40;85.20
73137;DHT22;62977;45.636;11.750;2022-11-23T06:40:16;8.30;85.30
73137;DHT22;62977;45.636;11.750;2022-11-23T06:42:42;8.20;85.00
73137;DHT22;62977;45.636;11.750;2022-11-23T06:45:08;8.20;85.30
73137;DHT22;62977;45.636;11.750;2022-11-23T06:47:34;8.20;85.30
73137;DHT22;62977;45.636;11.750;2022-11-23T06:50:00;8.10;85.50
73137;DHT22;62977;45.636;11.750;2022-11-23T06:52:25;7.80;85.90
73137;DHT22;62977;45.636;11.750;2022-11-23T06:54:51;7.90;86.10
73137;DHT22;62977;45.636;11.750;2022-11-23T06:57:16;8.10;86.30
73137;DHT22;62977;45.636;11.750;2022-11-23T06:59:42;8.00;85.90
73137;DHT22;62977;45.636;11.750;2022-11-23T07:02:10;8.20;86.00
73137;DHT22;62977;45.636;11.750;2022-11-23T07:04:35;8.10;85.70
73137;DHT22;62977;45.636;11.750;2022-11-23T07:07:01;8.10;86.10
73137;DHT22;62977;45.636;11.750;2022-11-23T07:09:27;8.20;86.10
73137;DHT22;62977;45.636;11.750;2022-11-23T07:11:53;8.30;85.80
73137;DHT22;62977;45.636;11.750;2022-11-23T07:14:18;8.20;85.60
73137;DHT22;62977;45.636;11.750;2022-11-23T07:16:44;8.20;85.60
73137;DHT22;62977;45.636;11.750;2022-11-23T07:19:10;8.30;85.50
73137;DHT22;62977;45.636;11.750;2022-11-23T07:21:35;8.40;85.40
73137;DHT22;62977;45.636;11.750;2022-11-23T07:24:01;8.40;85.30
73137;DHT22;62977;45.636;11.750;2022-11-23T07:26:27;8.40;85.10
73137;DHT22;62977;45.636;11.750;2022-11-23T07:28:52;8.60;85.00
73137;DHT22;62977;45.636;11.750;2022-11-23T07:31:18;8.60;85.30
73137;DHT22;62977;45.636;11.750;2022-11-23T07:33:45;8.70;85.30
73137;DHT22;62977;45.636;11.750;2022-11-23T07:36:10;8.60;84.50
73137;DHT22;62977;45.636;11.750;2022-11-23T07:38:36;8.70;84.60
73137;DHT22;62977;45.636;11.750;2022-11-23T07:41:02;8.70;84.50
73137;DHT22;62977;45.636;11.750;2022-11-23T07:43:28;8.70;84.30
73137;DHT22;62977;45.636;11.750;2022-11-23T07:45:55;8.80;84.90
73137;DHT22;62977;45.636;11.750;2022-11-23T07:48:21;9.00;84.30
73137;DHT22;62977;45.636;11.750;2022-11-23T07:50:50;9.10;83.90
73137;DHT22;62977;45.636;11.750;2022-11-23T07:53:16;9.10;83.40
73137;DHT22;62977;45.636;11.750;2022-11-23T07:55:41;9.20;83.30
73137;DHT22;62977;45.636;11.750;2022-11-23T07:58:09;9.30;82.90
73137;DHT22;62977;45.636;11.750;2022-11-23T08:00:34;9.30;82.20
73137;DHT22;62977;45.636;11.750;2022-11-23T08:03:00;9.50;82.20
73137;DHT22;62977;45.636;11.750;2022-11-23T08:05:26;9.50;81.00
73137;DHT22;62977;45.636;11.750;2022-11-23T08:07:58;9.50;80.80
73137;DHT22;62977;45.636;11.750;2022-11-23T08:10:24;9.60;80.60
73137;DHT22;62977;45.636;11.750;2022-11-23T08:12:50;9.60;80.80
73137;DHT22;62977;45.636;11.750;2022-11-23T08:15:16;9.80;80.60
73137;DHT22;62977;45.636;11.750;2022-11-23T08:17:41;9.90;80.40
73137;DHT22;62977;45.636;11.750;2022-11-23T08:20:08;10.00;80.40
73137;DHT22;62977;45.636;11.750;2022-11-23T08:22:33;10.30;80.10
73137;DHT22;62977;45.636;11.750;2022-11-23T08:24:59;10.30;80.30
73137;DHT22;62977;45.636;11.750;2022-11-23T08:27:25;10.40;80.20
73137;DHT22;62977;45.636;11.750;2022-11-23T08:29:50;10.50;79.80
73137;DHT22;62977;45.636;11.750;2022-11-23T08:32:16;10.40;80.10
73137;DHT22;62977;45.636;11.750;2022-11-23T08:34:42;10.40;80.60
73137;DHT22;62977;45.636;11.750;2022-11-23T08:37:10;10.30;80.70
73137;DHT22;62977;45.636;11.750;2022-11-23T08:39:36;10.40;81.50
73137;DHT22;62977;45.636;11.750;2022-11-23T08:42:01;10.30;81.10
73137;DHT22;62977;45.636;11.750;2022-11-23T08:44:27;10.40;81.30
73137;DHT22;62977;45.636;11.750;2022-11-23T08:46:53;10.40;81.30
73137;DHT22;62977;45.636;11.750;2022-11-23T08:49:19;10.40;81.20
73137;DHT22;62977;45.636;11.750;2022-11-23T08:51:44;10.50;81.80
73137;DHT22;62977;45.636;11.750;2022-11-23T08:54:10;10.30;81.70
73137;DHT22;62977;45.636;11.750;2022-11-23T08:56:36;10.40;81.30
73137;DHT22;62977;45.636;11.750;2022-11-23T08:59:02;10.50;80.80
73137;DHT22;62977;45.636;11.750;2022-11-23T09:01:27;10.80;81.30
73137;DHT22;62977;45.636;11.750;2022-11-23T09:03:53;10.80;81.40
73137;DHT22;62977;45.636;11.750;2022-11-23T09:06:19;10.90;81.10
73137;DHT22;62977;45.636;11.750;2022-11-23T09:08:45;10.90;81.30
73137;DHT22;62977;45.636;11.750;2022-11-23T09:11:12;11.10;80.80
73137;DHT22;62977;45.636;11.750;2022-11-23T09:13:39;11.40;81.00
73137;DHT22;62977;45.636;11.750;2022-11-23T09:16:05;11.50;80.50
73137;DHT22;62977;45.636;11.750;2022-11-23T09:18:31;11.50;79.90
73137;DHT22;62977;45.636;11.750;2022-11-23T09:21:00;11.80;79.70
73137;DHT22;62977;45.636;11.750;2022-11-23T09:23:26;12.40;79.30
73137;DHT22;62977;45.636;11.750;2022-11-23T09:25:52;12.40;78.80
73137;DHT22;62977;45.636;11.750;2022-11-23T09:28:18;12.20;78.10
73137;DHT22;62977;45.636;11.750;2022-11-23T09:30:44;12.70;78.10
73137;DHT22;62977;45.636;11.750;2022-11-23T09:33:11;12.80;76.50
73137;DHT22;62977;45.636;11.750;2022-11-23T09:35:36;13.60;76.30
73137;DHT22;62977;45.636;11.750;2022-11-23T09:38:02;13.30;75.50
73137;DHT22;62977;45.636;11.750;2022-11-23T09:40:33;13.50;75.30
73137;DHT22;62977;45.636;11.750;2022-11-23T09:45:52;14.00;74.80
73137;DHT22;62977;45.636;11.750;2022-11-23T09:48:42;14.20;74.00
73137;DHT22;62977;45.636;11.750;2022-11-23T09:51:21;14.70;73.50
73137;DHT22;62977;45.636;11.750;2022-11-23T09:56:40;15.40;73.10
73137;DHT22;62977;45.636;11.750;2022-11-23T09:59:22;15.60;71.10
73137;DHT22;62977;45.636;11.750;2022-11-23T10:01:50;15.70;70.70
73137;DHT22;62977;45.636;11.750;2022-11-23T10:04:18;15.40;70.00
73137;DHT22;62977;45.636;11.750;2022-11-23T10:06:51;15.70;70.30
73137;DHT22;62977;45.636;11.750;2022-11-23T10:17:48;15.80;63.20
73137;DHT22;62977;45.636;11.750;2022-11-23T10:23:06;15.60;63.90
73137;DHT22;62977;45.636;11.750;2022-11-23T10:25:39;16.00;63.50
73137;DHT22;62977;45.636;11.750;2022-11-23T10:28:12;16.00;62.30
73137;DHT22;62977;45.636;11.750;2022-11-23T10:30:38;16.20;62.00
73137;DHT22;62977;45.636;11.750;2022-11-23T10:35:35;16.40;60.90
73137;DHT22;62977;45.636;11.750;2022-11-23T10:38:13;16.40;60.70
73137;DHT22;62977;45.636;11.750;2022-11-23T10:40:44;16.00;60.90
73137;DHT22;62977;45.636;11.750;2022-11-23T10:43:17;15.90;61.20
73137;DHT22;62977;45.636;11.750;2022-11-23T10:45:45;16.30;61.00
73137;DHT22;62977;45.636;11.750;2022-11-23T10:48:33;16.40;61.10
73137;DHT22;62977;45.636;11.750;2022-11-23T10:51:18;16.00;61.20
73137;DHT22;62977;45.636;11.750;2022-11-23T10:55:08;16.60;60.70
73137;DHT22;62977;45.636;11.750;2022-11-23T10:57:19;16.40;59.70
73137;DHT22;62977;45.636;11.750;2022-11-23T11:07:51;16.80;59.60
73137;DHT22;62977;45.636;11.750;2022-11-23T11:10:39;17.20;59.00
73137;DHT22;62977;45.636;11.750;2022-11-23T11:15:56;17.70;57.40
73137;DHT22;62977;45.636;11.750;2022-11-23T11:18:25;17.80;57.30
73137;DHT22;62977;45.636;11.750;2022-11-23T11:21:20;17.50;58.40
73137;DHT22;62977;45.636;11.750;2022-11-23T11:26:27;17.90;56.50
73137;DHT22;62977;45.636;11.750;2022-11-23T11:29:04;17.90;56.30
73137;DHT22;62977;45.636;11.750;2022-11-23T11:34:31;17.70;55.10
73137;DHT22;62977;45.636;11.750;2022-11-23T11:37:01;18.50;52.80
73137;DHT22;62977;45.636;11.750;2022-11-23T11:39:35;17.80;52.60
73137;DHT22;62977;45.636;11.750;2022-11-23T11:42:07;17.70;52.40
73137;DHT22;62977;45.636;11.750;2022-11-23T11:44:39;17.70;53.10
73137;DHT22;62977;45.636;11.750;2022-11-23T11:47:36;17.60;51.80
73137;DHT22;62977;45.636;11.750;2022-11-23T11:52:46;18.00;51.80
73137;DHT22;62977;45.636;11.750;2022-11-23T11:55:39;18.10;51.60
73137;DHT22;62977;45.636;11.750;2022-11-23T11:58:10;18.40;50.80
73137;DHT22;62977;45.636;11.750;2022-11-23T12:00:37;18.40;49.30
73137;DHT22;62977;45.636;11.750;2022-11-23T12:06:05;18.90;49.50
73137;DHT22;62977;45.636;11.750;2022-11-23T12:08:50;18.70;48.40
73137;DHT22;62977;45.636;11.750;2022-11-23T12:11:18;18.90;46.20
73137;DHT22;62977;45.636;11.750;2022-11-23T12:13:44;19.00;47.10
73137;DHT22;62977;45.636;11.750;2022-11-23T12:17:01;19.40;47.30
73137;DHT22;62977;45.636;11.750;2022-11-23T12:19:27;19.40;46.70
73137;DHT22;62977;45.636;11.750;2022-11-23T12:35:44;21.00;42.40
73137;DHT22;62977;45.636;11.750;2022-11-23T12:46:53;20.60;42.70
73137;DHT22;62977;45.636;11.750;2022-11-23T12:55:17;21.20;39.80
73137;DHT22;62977;45.636;11.750;2022-11-23T12:58:01;21.60;37.80
73137;DHT22;62977;45.636;11.750;2022-11-23T13:00:34;21.20;39.00
73137;DHT22;62977;45.636;11.750;2022-11-23T13:03:33;21.00;38.60
73137;DHT22;62977;45.636;11.750;2022-11-23T13:06:05;21.50;38.70
73137;DHT22;62977;45.636;11.750;2022-11-23T13:22:00;22.70;36.40
73137;DHT22;62977;45.636;11.750;2022-11-23T13:24:31;22.20;36.40
73137;DHT22;62977;45.636;11.750;2022-11-23T13:43:01;24.00;32.40
73137;DHT22;62977;45.636;11.750;2022-11-23T13:45:31;24.00;32.50
73137;DHT22;62977;45.636;11.750;2022-11-23T13:50:55;24.00;32.40
73137;DHT22;62977;45.636;11.750;2022-11-23T13:56:34;23.70;33.00
73137;DHT22;62977;45.636;11.750;2022-11-23T14:04:42;23.60;34.00
73137;DHT22;62977;45.636;11.750;2022-11-23T14:07:24;23.60;34.10
73137;DHT22;62977;45.636;11.750;2022-11-23T14:12:41;22.70;37.60
73137;DHT22;62977;45.636;11.750;2022-11-23T14:15:38;22.80;38.70
73137;DHT22;62977;45.636;11.750;2022-11-23T14:21:41;20.70;43.40
73137;DHT22;62977;45.636;11.750;2022-11-23T14:40:45;17.00;55.00
73137;DHT22;62977;45.636;11.750;2022-11-23T14:43:15;16.40;55.30
73137;DHT22;62977;45.636;11.750;2022-11-23T14:45:44;16.10;56.70
73137;DHT22;62977;45.636;11.750;2022-11-23T14:48:33;15.60;57.80
73137;DHT22;62977;45.636;11.750;2022-11-23T14:51:19;15.40;58.70
73137;DHT22;62977;45.636;11.750;2022-11-23T14:53:49;15.50;58.80
73137;DHT22;62977;45.636;11.750;2022-11-23T14:56:34;15.50;59.10
73137;DHT22;62977;45.636;11.750;2022-11-23T14:59:18;15.50;59.70
73137;DHT22;62977;45.636;11.750;2022-11-23T15:01:49;15.40;61.60
73137;DHT22;62977;45.636;11.750;2022-11-23T15:04:31;15.20;61.20
73137;DHT22;62977;45.636;11.750;2022-11-23T15:07:13;15.10;62.10
73137;DHT22;62977;45.636;11.750;2022-11-23T15:10:36;15.10;61.80
73137;DHT22;62977;45.636;11.750;2022-11-23T15:12:47;15.00;62.70
73137;DHT22;62977;45.636;11.750;2022-11-23T15:15:20;15.00;61.70
73137;DHT22;62977;45.636;11.750;2022-11-23T15:18:00;14.90;62.90
73137;DHT22;62977;45.636;11.750;2022-11-23T15:20:31;14.80;63.70
73137;DHT22;62977;45.636;11.750;2022-11-23T15:23:00;14.70;64.40
73137;DHT22;62977;45.636;11.750;2022-11-23T15:25:25;14.70;64.40
73137;DHT22;62977;45.636;11.750;2022-11-23T15:27:53;14.70;70.20
73137;DHT22;62977;45.636;11.750;2022-11-23T15:30:19;14.70;70.10
73137;DHT22;62977;45.636;11.750;2022-11-23T15:32:56;14.60;70.50
73137;DHT22;62977;45.636;11.750;2022-11-23T15:35:30;14.60;70.10
73137;DHT22;62977;45.636;11.750;2022-11-23T15:37:57;14.30;70.70
73137;DHT22;62977;45.636;11.750;2022-11-23T15:40:28;14.30;70.80
73137;DHT22;62977;45.636;11.750;2022-11-23T15:42:54;14.20;70.90
73137;DHT22;62977;45.636;11.750;2022-11-23T15:48:25;14.20;71.20
73137;DHT22;62977;45.636;11.750;2022-11-23T15:50:54;14.00;71.40
73137;DHT22;62977;45.636;11.750;2022-11-23T15:56:24;13.90;71.40
73137;DHT22;62977;45.636;11.750;2022-11-23T15:58:51;13.80;72.10
73137;DHT22;62977;45.636;11.750;2022-11-23T16:01:18;13.70;72.60
73137;DHT22;62977;45.636;11.750;2022-11-23T16:06:18;13.30;72.80
73137;DHT22;62977;45.636;11.750;2022-11-23T16:08:46;13.30;72.80
73137;DHT22;62977;45.636;11.750;2022-11-23T16:13:44;13.40;73.00
73137;DHT22;62977;45.636;11.750;2022-11-23T16:16:20;13.40;73.30
73137;DHT22;62977;45.636;11.750;2022-11-23T16:18:49;13.30;73.50
73137;DHT22;62977;45.636;11.750;2022-11-23T16:21:22;13.30;73.70
73137;DHT22;62977;45.636;11.750;2022-11-23T16:23:51;13.20;73.50
73137;DHT22;62977;45.636;11.750;2022-11-23T16:26:19;13.00;74.30
73137;DHT22;62977;45.636;11.750;2022-11-23T16:28:50;12.90;74.60
73137;DHT22;62977;45.636;11.750;2022-11-23T16:33:53;12.70;76.10
73137;DHT22;62977;45.636;11.750;2022-11-23T16:36:19;12.60;76.40
73137;DHT22;62977;45.636;11.750;2022-11-23T16:38:45;12.60;76.20
73137;DHT22;62977;45.636;11.750;2022-11-23T16:41:10;12.60;76.40
73137;DHT22;62977;45.636;11.750;2022-11-23T16:43:36;12.50;76.40
73137;DHT22;62977;45.636;11.750;2022-11-23T16:46:02;12.40;76.40
73137;DHT22;62977;45.636;11.750;2022-11-23T16:50:56;12.20;76.90
73137;DHT22;62977;45.636;11.750;2022-11-23T16:53:22;12.10;77.40
73137;DHT22;62977;45.636;11.750;2022-11-23T16:55:52;12.00;77.50
73137;DHT22;62977;45.636;11.750;2022-11-23T16:58:19;12.10;77.10
73137;DHT22;62977;45.636;11.750;2022-11-23T17:00:45;12.10;77.10
73137;DHT22;62977;45.636;11.750;2022-11-23T17:03:14;11.90;77.50
73137;DHT22;62977;45.636;11.750;2022-11-23T17:05:40;11.80;77.70
73137;DHT22;62977;45.636;11.750;2022-11-23T17:08:06;11.60;77.30
73137;DHT22;62977;45.636;11.750;2022-11-23T17:10:32;11.50;77.60
73137;DHT22;62977;45.636;11.750;2022-11-23T17:12:59;11.40;77.60
73137;DHT22;62977;45.636;11.750;2022-11-23T17:15:25;11.30;78.30
73137;DHT22;62977;45.636;11.750;2022-11-23T17:17:50;11.30;78.30
73137;DHT22;62977;45.636;11.750;2022-11-23T17:20:17;11.20;78.20
73137;DHT22;62977;45.636;11.750;2022-11-23T17:22:42;10.90;78.30
73137;DHT22;62977;45.636;11.750;2022-11-23T17:25:10;10.50;78.80
73137;DHT22;62977;45.636;11.750;2022-11-23T17:27:39;10.40;79.00
73137;DHT22;62977;45.636;11.750;2022-11-23T17:30:11;10.30;79.00
73137;DHT22;62977;45.636;11.750;2022-11-23T17:32:37;10.10;79.30
73137;DHT22;62977;45.636;11.750;2022-11-23T17:35:03;10.10;79.40
73137;DHT22;62977;45.636;11.750;2022-11-23T17:37:29;10.10;79.30
73137;DHT22;62977;45.636;11.750;2022-11-23T17:39:55;10.30;78.90
73137;DHT22;62977;45.636;11.750;2022-11-23T17:42:20;10.20;79.40
73137;DHT22;62977;45.636;11.750;2022-11-23T17:44:46;10.40;79.00
73137;DHT22;62977;45.636;11.750;2022-11-23T17:47:30;10.50;78.90
73137;DHT22;62977;45.636;11.750;2022-11-23T17:49:56;10.50;79.00
73137;DHT22;62977;45.636;11.750;2022-11-23T17:52:23;10.60;78.80
73137;DHT22;62977;45.636;11.750;2022-11-23T17:54:49;10.40;78.70
73137;DHT22;62977;45.636;11.750;2022-11-23T17:57:18;10.30;78.80
73137;DHT22;62977;45.636;11.750;2022-11-23T17:59:44;10.30;78.80
73137;DHT22;62977;45.636;11.750;2022-11-23T18:02:10;10.20;78.70
73137;DHT22;62977;45.636;11.750;2022-11-23T18:04:36;10.10;79.10
73137;DHT22;62977;45.636;11.750;2022-11-23T18:07:02;9.90;79.30